Terminal Aerodrome Forecast
Issued by NWS Wilmington, OH

Current Version | Previous Version | Text Only | Print | Product List | Glossary Off
Versions: 1 2 3 4 5 6 7 8 9 10 11 12 13 14 15 16 17 18 19 20 21 22 23 24 25 26 27 28 29 30 31

000
FTUS41 KILN 161400 AAA
TAFCVG
TAF AMD
KCVG 161416Z 1614/1718 15012KT P6SM VCSH OVC015
      TEMPO 1617/1620 5SM -SHRA
     FM162000 19006KT 5SM -SHRA VCTS OVC020CB
     FM170300 23005KT 4SM BR OVC010
     FM171200 31006KT P6SM SCT030=

USA.gov is the U.S. government's official web portal to all federal, state and local government web resources and services.